createdAt,value
2022-11-07T00:04:38.694Z,98589.08
2022-11-07T00:14:42.229Z,98585.42
2022-11-07T00:24:45.708Z,98595.11
2022-11-07T00:34:49.144Z,98593.52
2022-11-07T00:44:52.590Z,98589.73
2022-11-07T00:54:55.841Z,98576.60
2022-11-07T01:05:11.398Z,98573.88
2022-11-07T01:15:15.194Z,98560.88
2022-11-07T01:25:18.628Z,98539.64
2022-11-07T01:35:22.264Z,98533.64
2022-11-07T01:45:28.299Z,98519.29
2022-11-07T01:55:35.131Z,98512.20
2022-11-07T02:05:43.648Z,98508.81
2022-11-07T02:15:47.628Z,98501.23
2022-11-07T02:25:51.782Z,98489.78
2022-11-07T02:35:55.770Z,98485.70
2022-11-07T02:46:02.714Z,98494.56
2022-11-07T02:56:08.151Z,98498.80
2022-11-07T03:06:13.449Z,98487.77
2022-11-07T03:16:18.511Z,98483.86
2022-11-07T03:26:21.198Z,98480.22
2022-11-07T03:36:24.747Z,98457.61
2022-11-07T03:46:28.687Z,98443.79
2022-11-07T03:56:32.197Z,98461.80
2022-11-07T04:06:36.132Z,98462.80
2022-11-07T04:16:58.238Z,98458.02
2022-11-07T04:27:19.988Z,98456.66
2022-11-07T04:37:23.486Z,98458.07
2022-11-07T04:47:26.982Z,98456.63
2022-11-07T04:57:30.456Z,98460.38
2022-11-07T05:07:33.903Z,98456.48
2022-11-07T05:17:37.382Z,98457.14
2022-11-07T05:27:40.873Z,98461.17
2022-11-07T05:37:44.137Z,98467.67
2022-11-07T05:47:48.211Z,98477.41
2022-11-07T05:57:52.076Z,98491.34
2022-11-07T06:07:55.115Z,98496.25
2022-11-07T06:17:59.097Z,98491.67
2022-11-07T06:28:05.061Z,98500.48
2022-11-07T06:38:10.881Z,98502.30
2022-11-07T06:48:14.567Z,98510.36
2022-11-07T06:58:17.736Z,98527.08
2022-11-07T07:08:21.267Z,98529.90
2022-11-07T07:18:26.153Z,98538.15
2022-11-07T07:28:29.700Z,98547.91
2022-11-07T07:38:33.526Z,98557.73
2022-11-07T07:48:37.072Z,98554.09
2022-11-07T07:58:40.568Z,98555.04
2022-11-07T08:08:43.992Z,98558.04
2022-11-07T08:18:47.510Z,98555.98
2022-11-07T08:28:53.240Z,98579.06
2022-11-07T08:39:11.267Z,98587.55
2022-11-07T08:49:14.876Z,98596.63
2022-11-07T08:59:18.489Z,98599.39
2022-11-07T09:09:21.653Z,98607.10
2022-11-07T09:19:25.237Z,98608.07
2022-11-07T09:29:28.741Z,98607.06
2022-11-07T09:39:32.646Z,98605.31
2022-11-07T09:49:38.954Z,98616.16
2022-11-07T09:59:45.143Z,98620.46
2022-11-07T10:09:48.072Z,98619.94
2022-11-07T10:20:01.614Z,98625.20
2022-11-07T10:30:16.440Z,98626.48
2022-11-07T10:40:21.134Z,98622.45
2022-11-07T11:00:29.128Z,98623.39
2022-11-07T11:10:38.533Z,98626.49
2022-11-07T11:20:46.150Z,98622.35
2022-11-07T11:30:48.143Z,98615.09
2022-11-07T11:40:59.272Z,98624.73
2022-11-07T11:51:06.802Z,98628.25
2022-11-07T12:01:09.935Z,98622.00
2022-11-07T12:11:12.831Z,98621.67
2022-11-07T12:21:20.131Z,98622.20
2022-11-07T12:31:35.236Z,98622.14
2022-11-07T12:41:39.312Z,98624.98
2022-11-07T12:51:47.057Z,98622.73
2022-11-07T13:01:55.650Z,98635.16
2022-11-07T13:11:58.928Z,98637.09
2022-11-07T13:22:03.818Z,98642.77
2022-11-07T13:32:09.019Z,98651.61
2022-11-07T13:42:13.476Z,98659.48
2022-11-07T13:52:19.559Z,98662.94
2022-11-07T14:02:25.019Z,98666.73
2022-11-07T14:12:28.843Z,98668.46
2022-11-07T14:22:32.367Z,98674.33
2022-11-07T14:32:36.156Z,98684.63
2022-11-07T14:42:43.374Z,98685.83
2022-11-07T14:52:49.229Z,98684.88
2022-11-07T15:02:55.607Z,98684.98
2022-11-07T15:13:00.542Z,98685.17
2022-11-07T15:23:06.447Z,98683.58
2022-11-07T15:33:10.146Z,98690.95
2022-11-07T15:43:13.952Z,98691.16
2022-11-07T15:53:18.507Z,98690.55
2022-11-07T16:03:25.569Z,98692.79
2022-11-07T16:13:29.828Z,98693.36
2022-11-07T16:23:33.627Z,98702.31
2022-11-07T16:33:37.071Z,98707.51
2022-11-07T16:43:40.941Z,98705.31
2022-11-07T16:53:45.381Z,98714.15
2022-11-07T17:03:49.313Z,98720.91
2022-11-07T17:13:53.312Z,98725.94
2022-11-07T17:23:59.336Z,98725.95
2022-11-07T17:34:05.989Z,98724.52
2022-11-07T17:44:10.835Z,98721.45
2022-11-07T17:54:16.011Z,98709.89
2022-11-07T18:04:18.647Z,98722.18
2022-11-07T18:14:21.709Z,98721.96
2022-11-07T18:24:24.829Z,98724.05
2022-11-07T18:34:27.852Z,98734.84
2022-11-07T18:44:30.587Z,98733.11
2022-11-07T18:54:33.056Z,98737.09
2022-11-07T19:04:35.609Z,98739.29
2022-11-07T19:14:38.693Z,98737.11
2022-11-07T19:24:41.215Z,98750.20
2022-11-07T19:34:43.867Z,98755.94
2022-11-07T19:44:51.546Z,98763.09
2022-11-07T19:54:55.437Z,98767.10
2022-11-07T20:04:58.035Z,98770.61
2022-11-07T20:15:00.631Z,98778.59
2022-11-07T20:25:03.797Z,98789.70
2022-11-07T20:35:07.603Z,98793.08
2022-11-07T20:45:10.855Z,98800.66
2022-11-07T20:55:13.472Z,98797.95
2022-11-07T21:05:18.443Z,98799.84
2022-11-07T21:15:21.458Z,98801.21
2022-11-07T21:25:24.005Z,98797.41
2022-11-07T21:35:30.982Z,98801.05
2022-11-07T21:45:36.034Z,98799.64
2022-11-07T21:55:38.757Z,98802.63
2022-11-07T22:05:41.316Z,98806.41
2022-11-07T22:15:45.692Z,98798.09
2022-11-07T22:25:48.207Z,98793.15
2022-11-07T22:35:50.800Z,98786.17
2022-11-07T22:45:53.348Z,98787.94
2022-11-07T22:55:55.891Z,98785.42
2022-11-07T23:06:01.833Z,98787.89
2022-11-07T23:16:04.409Z,98791.59
2022-11-07T23:26:06.421Z,98791.83
2022-11-07T23:36:08.658Z,98793.54
2022-11-07T23:46:29.200Z,98794.70
2022-11-07T23:56:31.992Z,98793.05
